Time;durP1;ratioP1;P1;durP2;ratioP2;P2;SDS_P1;SDS_P2;PMS_P1;PMS_P2;Temp;Humidity;BMP_temperature;BMP_pressure;BME280_temperature;BME280_humidity;BME280_pressure;Samples;Min_cycle;Max_cycle;Signal;HPM_P1;HPM_P2
2020/12/18 00:00:12;;;;;;;69.97;36.17;;;;;;;;;;4997363;28;20703;-78
2020/12/18 00:02:38;;;;;;;77.47;42.63;;;;;;;;;;4997463;28;20201;-78
2020/12/18 00:05:03;;;;;;;72.70;37.73;;;;;;;;;;4997200;28;20177;-78
2020/12/18 00:07:29;;;;;;;81.17;39.13;;;;;;;;;;4997692;28;20181;-78
2020/12/18 00:09:54;;;;;;;137.93;73.40;;;;;;;;;;4997619;28;20174;-77
2020/12/18 00:12:20;;;;;;;77.73;40.70;;;;;;;;;;4997304;28;20291;-78
2020/12/18 00:14:45;;;;;;;117.10;58.97;;;;;;;;;;5016327;28;20252;-77
2020/12/18 00:17:10;;;;;;;73.90;38.60;;;;;;;;;;5005932;28;20201;-77
2020/12/18 00:19:36;;;;;;;73.83;37.33;;;;;;;;;;4979048;28;20272;-82
2020/12/18 00:22:01;;;;;;;71.90;36.50;;;;;;;;;;4995769;28;20232;-78
2020/12/18 00:24:26;;;;;;;74.80;39.10;;;;;;;;;;4995620;28;20166;-78
2020/12/18 00:26:52;;;;;;;74.67;37.73;;;;;;;;;;4995450;28;20240;-79
2020/12/18 00:29:17;;;;;;;72.37;37.97;;;;;;;;;;4994109;28;20214;-78
2020/12/18 00:31:43;;;;;;;80.63;42.00;;;;;;;;;;4995185;28;20198;-78
2020/12/18 00:34:08;;;;;;;76.73;41.23;;;;;;;;;;4995748;28;20266;-78
2020/12/18 00:36:34;;;;;;;88.90;47.23;;;;;;;;;;4994937;28;20193;-79
2020/12/18 00:38:59;;;;;;;90.33;44.67;;;;;;;;;;4995418;28;20259;-78
2020/12/18 00:41:24;;;;;;;89.20;45.37;;;;;;;;;;5010080;28;20166;-80
2020/12/18 00:43:50;;;;;;;97.40;51.47;;;;;;;;;;5013361;28;20167;-79
2020/12/18 00:46:15;;;;;;;95.50;47.50;;;;;;;;;;5002164;28;20170;-78
2020/12/18 00:48:40;;;;;;;91.83;49.53;;;;;;;;;;4993443;28;20173;-79
2020/12/18 00:51:06;;;;;;;87.70;46.30;;;;;;;;;;4993552;28;20574;-77
2020/12/18 00:53:33;;;;;;;86.67;45.60;;;;;;;;;;4993076;28;20174;-79
2020/12/18 00:55:58;;;;;;;90.40;50.83;;;;;;;;;;4993662;28;20684;-77
2020/12/18 00:58:24;;;;;;;92.03;49.73;;;;;;;;;;4994919;28;20228;-77
2020/12/18 01:00:49;;;;;;;85.40;45.47;;;;;;;;;;4995336;28;20692;-78
2020/12/18 01:03:14;;;;;;;87.17;45.53;;;;;;;;;;4994932;28;20177;-78
2020/12/18 01:05:40;;;;;;;94.20;47.53;;;;;;;;;;4995444;28;20174;-79
2020/12/18 01:08:05;;;;;;;90.10;48.23;;;;;;;;;;4995070;28;20217;-78
2020/12/18 01:10:31;;;;;;;87.77;45.37;;;;;;;;;;4994830;28;20528;-78
2020/12/18 01:12:56;;;;;;;75.77;42.27;;;;;;;;;;4994694;28;20208;-78
2020/12/18 01:15:21;;;;;;;83.47;43.63;;;;;;;;;;4995053;28;20174;-78
2020/12/18 01:17:47;;;;;;;86.30;45.87;;;;;;;;;;4994728;28;20170;-78
2020/12/18 01:20:12;;;;;;;83.83;45.17;;;;;;;;;;4994583;28;20691;-79
2020/12/18 01:22:37;;;;;;;91.77;46.80;;;;;;;;;;4994774;28;20182;-78
2020/12/18 01:25:03;;;;;;;89.13;45.53;;;;;;;;;;4994832;28;20181;-78
2020/12/18 01:27:28;;;;;;;87.70;44.07;;;;;;;;;;4994529;28;20180;-77
2020/12/18 01:29:54;;;;;;;85.77;43.47;;;;;;;;;;4994628;28;20212;-78
2020/12/18 01:32:19;;;;;;;83.90;43.57;;;;;;;;;;4994698;28;20210;-78
2020/12/18 01:34:45;;;;;;;87.83;45.67;;;;;;;;;;4994900;28;20166;-78
2020/12/18 01:37:11;;;;;;;92.17;49.70;;;;;;;;;;5001995;28;20170;-77
2020/12/18 01:39:36;;;;;;;90.37;45.83;;;;;;;;;;5009777;28;20188;-77
2020/12/18 01:42:02;;;;;;;84.80;43.77;;;;;;;;;;5010295;28;20181;-77
2020/12/18 01:44:27;;;;;;;87.30;42.93;;;;;;;;;;4997865;28;20172;-78
2020/12/18 01:46:52;;;;;;;86.27;45.57;;;;;;;;;;4994370;28;20170;-77
2020/12/18 01:49:18;;;;;;;82.47;41.43;;;;;;;;;;4994095;28;20184;-78
2020/12/18 01:51:44;;;;;;;80.63;41.40;;;;;;;;;;4993945;28;20205;-79
2020/12/18 01:54:09;;;;;;;80.10;41.30;;;;;;;;;;4993928;28;20613;-78
2020/12/18 01:56:35;;;;;;;74.20;39.73;;;;;;;;;;4993350;28;20270;-78
2020/12/18 01:59:00;;;;;;;80.43;40.63;;;;;;;;;;4976521;28;20212;-78
2020/12/18 02:01:26;;;;;;;83.23;43.57;;;;;;;;;;4993771;28;20194;-78
2020/12/18 02:03:53;;;;;;;81.30;40.23;;;;;;;;;;4993793;28;20583;-78
2020/12/18 02:06:21;;;;;;;76.23;38.93;;;;;;;;;;4994172;28;20219;-78
2020/12/18 02:08:48;;;;;;;71.37;39.33;;;;;;;;;;4993722;28;20201;-78
2020/12/18 02:11:20;;;;;;;78.53;39.70;;;;;;;;;;4994197;28;20671;-78
2020/12/18 02:13:46;;;;;;;76.43;41.23;;;;;;;;;;4993905;28;20637;-79
2020/12/18 02:16:12;;;;;;;82.50;41.87;;;;;;;;;;4994038;28;20177;-78
2020/12/18 02:18:37;;;;;;;77.33;39.70;;;;;;;;;;4993917;28;20256;-77
2020/12/18 02:21:03;;;;;;;78.47;40.73;;;;;;;;;;4994213;28;20166;-77
2020/12/18 02:23:28;;;;;;;74.10;40.27;;;;;;;;;;4993981;28;20178;-77
2020/12/18 02:26:04;;;;;;;77.63;40.53;;;;;;;;;;4993891;28;20170;-77
2020/12/18 02:28:30;;;;;;;74.43;40.50;;;;;;;;;;4993614;28;20169;-77
2020/12/18 02:30:55;;;;;;;82.60;42.13;;;;;;;;;;4993442;28;20166;-78
2020/12/18 02:33:20;;;;;;;85.20;42.50;;;;;;;;;;4994114;28;20209;-78
2020/12/18 02:35:46;;;;;;;85.60;43.40;;;;;;;;;;4993836;28;20177;-78
2020/12/18 02:38:11;;;;;;;78.57;40.63;;;;;;;;;;4993416;28;20170;-78
2020/12/18 02:40:36;;;;;;;82.03;44.23;;;;;;;;;;4993552;28;20999;-78
2020/12/18 02:43:02;;;;;;;85.77;43.10;;;;;;;;;;4993305;28;20178;-78
2020/12/18 02:45:27;;;;;;;89.30;45.63;;;;;;;;;;4993200;28;20169;-78
2020/12/18 02:47:53;;;;;;;81.20;42.83;;;;;;;;;;4993159;28;20169;-78
2020/12/18 02:50:18;;;;;;;79.27;43.73;;;;;;;;;;4993425;28;20230;-82
2020/12/18 02:52:43;;;;;;;88.53;44.87;;;;;;;;;;4993309;28;20201;-78
2020/12/18 02:55:09;;;;;;;76.27;42.87;;;;;;;;;;4993141;28;20174;-78
2020/12/18 02:57:34;;;;;;;84.70;45.07;;;;;;;;;;4993269;28;20184;-78
2020/12/18 02:59:59;;;;;;;83.27;44.57;;;;;;;;;;4993129;28;20691;-78
2020/12/18 03:02:25;;;;;;;83.43;45.10;;;;;;;;;;4993034;28;20177;-78
2020/12/18 03:04:50;;;;;;;81.40;44.10;;;;;;;;;;4992965;28;20597;-78
2020/12/18 03:07:16;;;;;;;76.37;40.17;;;;;;;;;;4994937;28;20178;-78
2020/12/18 03:09:41;;;;;;;73.60;38.27;;;;;;;;;;4997269;28;20170;-78
2020/12/18 03:12:06;;;;;;;75.13;39.17;;;;;;;;;;4997221;28;20293;-78
2020/12/18 03:14:32;;;;;;;72.90;38.50;;;;;;;;;;4996954;28;20176;-78
2020/12/18 03:16:57;;;;;;;72.07;38.93;;;;;;;;;;4997383;28;20252;-78
2020/12/18 03:19:22;;;;;;;69.77;38.67;;;;;;;;;;4997110;28;20171;-78
2020/12/18 03:21:48;;;;;;;71.73;41.03;;;;;;;;;;4997354;28;20186;-78
2020/12/18 03:24:13;;;;;;;70.50;37.53;;;;;;;;;;4996737;28;20174;-78
2020/12/18 03:26:38;;;;;;;70.27;37.47;;;;;;;;;;4996750;28;20624;-78
2020/12/18 03:29:04;;;;;;;65.33;37.43;;;;;;;;;;4997241;28;20580;-78
2020/12/18 03:31:29;;;;;;;71.47;39.23;;;;;;;;;;4996865;28;20547;-78
2020/12/18 03:33:54;;;;;;;63.37;36.93;;;;;;;;;;4996854;28;20178;-78
2020/12/18 03:36:20;;;;;;;66.20;36.57;;;;;;;;;;4997103;28;20208;-78
2020/12/18 03:38:45;;;;;;;65.63;37.13;;;;;;;;;;4996483;28;20165;-78
2020/12/18 03:41:10;;;;;;;68.90;38.40;;;;;;;;;;4996405;28;20235;-78
2020/12/18 03:43:36;;;;;;;70.67;38.07;;;;;;;;;;4995365;28;20185;-78
2020/12/18 03:46:01;;;;;;;66.00;37.47;;;;;;;;;;4996876;28;20201;-78
2020/12/18 03:48:27;;;;;;;66.87;38.87;;;;;;;;;;4996447;28;20177;-79
2020/12/18 03:50:52;;;;;;;73.53;40.97;;;;;;;;;;4996436;28;20199;-78
2020/12/18 03:53:18;;;;;;;81.50;42.77;;;;;;;;;;4996620;28;20166;-78
2020/12/18 03:55:43;;;;;;;75.40;41.00;;;;;;;;;;4996792;28;20174;-78
2020/12/18 03:58:09;;;;;;;75.03;40.93;;;;;;;;;;4996656;28;20197;-78
2020/12/18 04:00:35;;;;;;;63.30;37.07;;;;;;;;;;4995709;28;20588;-78
2020/12/18 04:03:01;;;;;;;67.53;36.33;;;;;;;;;;4996007;28;20174;-78
2020/12/18 04:05:26;;;;;;;58.03;33.87;;;;;;;;;;4996514;28;20181;-78
2020/12/18 04:07:51;;;;;;;62.77;34.67;;;;;;;;;;4996579;28;20616;-77
2020/12/18 04:10:16;;;;;;;60.37;34.57;;;;;;;;;;4995957;28;20505;-78
2020/12/18 04:12:42;;;;;;;57.60;31.50;;;;;;;;;;4995786;28;20559;-78
2020/12/18 04:15:07;;;;;;;53.03;32.40;;;;;;;;;;4995783;28;20268;-78
2020/12/18 04:17:33;;;;;;;57.83;32.77;;;;;;;;;;4995079;28;20162;-78
2020/12/18 04:19:58;;;;;;;56.03;31.40;;;;;;;;;;4995980;28;20224;-78
2020/12/18 04:22:23;;;;;;;53.07;31.67;;;;;;;;;;4996302;28;20170;-78
2020/12/18 04:24:49;;;;;;;55.27;32.60;;;;;;;;;;4996208;28;20166;-78
2020/12/18 04:27:14;;;;;;;56.23;33.37;;;;;;;;;;4996108;28;20162;-78
2020/12/18 04:29:39;;;;;;;58.80;33.70;;;;;;;;;;4996089;28;20624;-78
2020/12/18 04:32:05;;;;;;;55.43;32.63;;;;;;;;;;4995479;28;20197;-78
2020/12/18 04:34:30;;;;;;;57.93;34.07;;;;;;;;;;4995740;28;20166;-78
2020/12/18 04:36:55;;;;;;;59.30;34.37;;;;;;;;;;4995769;28;20170;-78
2020/12/18 04:39:21;;;;;;;57.13;33.43;;;;;;;;;;4996297;28;20177;-78
2020/12/18 04:41:46;;;;;;;59.20;33.87;;;;;;;;;;4995442;28;20976;-78
2020/12/18 04:44:11;;;;;;;60.87;35.50;;;;;;;;;;4995319;28;20170;-78
2020/12/18 04:46:37;;;;;;;61.17;36.07;;;;;;;;;;4995242;28;20230;-78
2020/12/18 04:49:03;;;;;;;64.90;37.73;;;;;;;;;;4995489;28;20208;-78
2020/12/18 04:51:29;;;;;;;72.53;40.80;;;;;;;;;;4995067;28;20202;-79
2020/12/18 04:53:55;;;;;;;72.27;38.70;;;;;;;;;;4995684;28;20178;-78
2020/12/18 04:56:20;;;;;;;71.17;40.17;;;;;;;;;;4995479;28;20170;-78
2020/12/18 04:58:48;;;;;;;71.50;38.43;;;;;;;;;;4995292;28;20173;-78
2020/12/18 05:01:16;;;;;;;71.50;39.27;;;;;;;;;;4995242;28;20591;-78
2020/12/18 05:03:43;;;;;;;68.03;36.80;;;;;;;;;;4995512;28;20174;-78
2020/12/18 05:06:09;;;;;;;66.40;37.40;;;;;;;;;;4994865;28;20181;-78
2020/12/18 05:08:34;;;;;;;66.13;36.83;;;;;;;;;;4995248;28;20177;-78
2020/12/18 05:11:13;;;;;;;63.60;34.53;;;;;;;;;;4994890;28;20181;-80
2020/12/18 05:13:39;;;;;;;59.03;33.77;;;;;;;;;;4994846;28;20165;-78
2020/12/18 05:16:04;;;;;;;47.70;29.07;;;;;;;;;;4995110;28;20644;-78
2020/12/18 05:18:29;;;;;;;44.83;27.53;;;;;;;;;;4995237;28;20523;-78
2020/12/18 05:20:55;;;;;;;41.83;26.63;;;;;;;;;;4995061;28;20509;-78
2020/12/18 05:23:20;;;;;;;47.00;27.83;;;;;;;;;;4994838;28;20181;-78
2020/12/18 05:25:49;;;;;;;40.63;25.60;;;;;;;;;;4994568;28;20166;-78
2020/12/18 05:28:21;;;;;;;45.00;25.70;;;;;;;;;;4994749;28;20256;-78
2020/12/18 05:30:46;;;;;;;38.67;26.17;;;;;;;;;;4994603;28;20174;-78
2020/12/18 05:33:12;;;;;;;43.30;27.40;;;;;;;;;;4994870;28;20212;-78
2020/12/18 05:35:38;;;;;;;43.50;28.93;;;;;;;;;;4994758;28;20178;-78
2020/12/18 05:38:04;;;;;;;44.93;29.33;;;;;;;;;;4994775;28;20537;-78
2020/12/18 05:40:29;;;;;;;46.03;29.87;;;;;;;;;;4995107;28;20221;-78
2020/12/18 05:42:55;;;;;;;53.80;33.73;;;;;;;;;;4994786;28;20182;-78
2020/12/18 05:45:20;;;;;;;53.97;35.63;;;;;;;;;;4994583;28;20210;-78
2020/12/18 05:48:02;;;;;;;59.03;34.40;;;;;;;;;;4994375;28;20170;-78
2020/12/18 05:50:32;;;;;;;50.93;32.17;;;;;;;;;;4994710;28;20174;-78
2020/12/18 05:52:58;;;;;;;49.13;30.73;;;;;;;;;;4994018;28;20707;-78
2020/12/18 05:55:23;;;;;;;49.97;30.63;;;;;;;;;;4994378;28;20174;-78
2020/12/18 05:57:49;;;;;;;48.77;29.30;;;;;;;;;;4994326;28;20256;-79
2020/12/18 06:00:14;;;;;;;51.03;29.33;;;;;;;;;;4993783;28;20233;-79
2020/12/18 06:02:42;;;;;;;45.63;29.03;;;;;;;;;;4994213;28;20177;-78
2020/12/18 06:05:08;;;;;;;50.47;31.17;;;;;;;;;;5001988;28;20170;-78
2020/12/18 06:07:39;;;;;;;54.30;31.40;;;;;;;;;;5011612;28;20243;-77
2020/12/18 06:10:04;;;;;;;46.73;29.23;;;;;;;;;;5010945;28;20173;-82
2020/12/18 06:12:30;;;;;;;50.50;29.37;;;;;;;;;;4994922;28;20194;-78
2020/12/18 06:14:56;;;;;;;48.20;29.27;;;;;;;;;;4993859;28;20174;-78
2020/12/18 06:17:27;;;;;;;52.30;31.67;;;;;;;;;;4993780;28;20184;-78
2020/12/18 06:19:56;;;;;;;49.13;28.53;;;;;;;;;;4993583;28;20169;-78
2020/12/18 06:22:21;;;;;;;50.27;29.83;;;;;;;;;;4993693;28;20210;-78
2020/12/18 06:24:46;;;;;;;57.23;33.07;;;;;;;;;;4993734;28;20216;-79
2020/12/18 06:27:12;;;;;;;52.43;32.83;;;;;;;;;;4993404;28;20578;-78
2020/12/18 06:29:38;;;;;;;54.63;33.33;;;;;;;;;;4993625;28;20181;-78
2020/12/18 06:32:20;;;;;;;58.50;32.40;;;;;;;;;;4993984;28;20198;-78
2020/12/18 06:34:45;;;;;;;55.67;29.50;;;;;;;;;;4993299;28;20277;-78
2020/12/18 06:37:24;;;;;;;50.50;31.17;;;;;;;;;;4993578;28;20688;-78
2020/12/18 06:39:49;;;;;;;56.53;32.60;;;;;;;;;;4993573;28;20221;-78
2020/12/18 06:42:15;;;;;;;52.97;30.80;;;;;;;;;;4992718;28;20533;-78
2020/12/18 06:44:40;;;;;;;52.73;29.77;;;;;;;;;;4993788;28;20217;-78
2020/12/18 06:47:09;;;;;;;48.17;29.20;;;;;;;;;;4994115;28;20174;-78
2020/12/18 06:50:04;;;;;;;52.37;28.50;;;;;;;;;;4993749;28;20174;-78
2020/12/18 06:52:46;;;;;;;49.33;29.10;;;;;;;;;;4983436;28;20214;-78
2020/12/18 06:55:13;;;;;;;48.27;29.63;;;;;;;;;;4993244;28;20177;-79
2020/12/18 06:57:38;;;;;;;48.47;28.77;;;;;;;;;;4993617;28;20231;-80
2020/12/18 07:00:22;;;;;;;50.53;29.40;;;;;;;;;;4992974;28;20313;-78
2020/12/18 07:02:48;;;;;;;90.13;50.63;;;;;;;;;;4993229;28;20616;-78
2020/12/18 07:05:39;;;;;;;65.97;38.67;;;;;;;;;;4993505;28;20166;-79
2020/12/18 07:08:08;;;;;;;70.20;37.13;;;;;;;;;;4983963;28;20185;-78
2020/12/18 07:10:37;;;;;;;69.33;39.27;;;;;;;;;;4993188;28;20185;-78
2020/12/18 07:13:02;;;;;;;85.03;43.80;;;;;;;;;;4993031;28;20209;-78
2020/12/18 07:15:48;;;;;;;69.70;41.37;;;;;;;;;;4992873;28;20174;-78
2020/12/18 07:18:14;;;;;;;66.17;40.73;;;;;;;;;;4992883;28;20189;-79
2020/12/18 07:20:49;;;;;;;93.97;51.97;;;;;;;;;;4992932;28;20178;-78
2020/12/18 07:23:15;;;;;;;66.23;39.80;;;;;;;;;;4992970;28;20169;-79
2020/12/18 07:25:40;;;;;;;68.30;40.57;;;;;;;;;;4993261;28;20639;-82
2020/12/18 07:28:06;;;;;;;72.97;44.07;;;;;;;;;;4993359;28;20193;-78
2020/12/18 07:30:32;;;;;;;60.13;38.43;;;;;;;;;;4993104;28;20652;-78
2020/12/18 07:32:57;;;;;;;70.67;41.43;;;;;;;;;;4992780;28;20556;-79
2020/12/18 07:35:23;;;;;;;69.00;37.37;;;;;;;;;;4993019;28;20170;-78
2020/12/18 07:37:48;;;;;;;82.57;46.63;;;;;;;;;;4993072;28;20519;-79
2020/12/18 07:40:13;;;;;;;78.97;44.07;;;;;;;;;;4993372;28;20178;-79
2020/12/18 07:42:42;;;;;;;84.60;45.77;;;;;;;;;;4993080;28;20177;-78
2020/12/18 07:45:08;;;;;;;71.33;41.80;;;;;;;;;;4993092;28;20209;-79
2020/12/18 07:47:34;;;;;;;90.00;47.37;;;;;;;;;;5003287;28;20703;-79
2020/12/18 07:50:01;;;;;;;71.23;41.00;;;;;;;;;;4993109;28;20224;-78
2020/12/18 07:52:27;;;;;;;98.37;55.17;;;;;;;;;;4992823;28;20352;-78
2020/12/18 07:54:56;;;;;;;77.47;42.53;;;;;;;;;;4996492;28;20640;-78
2020/12/18 07:57:21;;;;;;;78.43;41.27;;;;;;;;;;4996299;28;20317;-78
2020/12/18 07:59:46;;;;;;;90.07;44.83;;;;;;;;;;4996083;28;20710;-78
2020/12/18 08:02:20;;;;;;;75.50;39.07;;;;;;;;;;4996385;28;20174;-78
2020/12/18 08:04:47;;;;;;;90.37;43.90;;;;;;;;;;4996707;28;20162;-78
2020/12/18 08:07:13;;;;;;;53.50;29.73;;;;;;;;;;4996569;28;20174;-78
2020/12/18 08:09:39;;;;;;;102.73;48.80;;;;;;;;;;4994244;28;20192;-78
2020/12/18 08:12:09;;;;;;;106.13;49.97;;;;;;;;;;4997244;28;20206;-78
2020/12/18 08:14:35;;;;;;;98.37;46.70;;;;;;;;;;4996288;28;20270;-78
2020/12/18 08:17:00;;;;;;;85.30;43.97;;;;;;;;;;4997105;28;20329;-79
2020/12/18 08:19:26;;;;;;;89.93;44.73;;;;;;;;;;4994778;28;20178;-78
2020/12/18 08:21:54;;;;;;;75.27;38.87;;;;;;;;;;4995551;28;20240;-79
2020/12/18 08:24:26;;;;;;;72.97;36.83;;;;;;;;;;4995079;28;20537;-78
2020/12/18 08:26:54;;;;;;;63.20;33.67;;;;;;;;;;4995987;28;20633;-79
2020/12/18 08:29:21;;;;;;;69.70;37.90;;;;;;;;;;4996031;28;20177;-79
2020/12/18 08:31:47;;;;;;;80.40;39.83;;;;;;;;;;4995275;28;20561;-79
2020/12/18 08:34:19;;;;;;;77.93;39.93;;;;;;;;;;4996063;28;20276;-79
2020/12/18 08:36:47;;;;;;;86.97;40.10;;;;;;;;;;5005996;28;20185;-78
2020/12/18 08:39:15;;;;;;;77.20;39.20;;;;;;;;;;4998093;28;20217;-78
2020/12/18 08:41:44;;;;;;;112.70;50.83;;;;;;;;;;4997351;28;20189;-77
2020/12/18 08:44:11;;;;;;;59.27;32.37;;;;;;;;;;4996404;28;20181;-78
2020/12/18 08:46:36;;;;;;;53.97;30.10;;;;;;;;;;4997017;28;20166;-78
2020/12/18 08:49:10;;;;;;;64.43;33.53;;;;;;;;;;4996524;28;20555;-78
2020/12/18 08:51:36;;;;;;;87.43;42.10;;;;;;;;;;4996915;28;20194;-77
2020/12/18 08:54:02;;;;;;;70.60;34.60;;;;;;;;;;4996358;28;20166;-78
2020/12/18 08:56:27;;;;;;;68.13;33.10;;;;;;;;;;4996071;28;20193;-78
2020/12/18 08:59:00;;;;;;;68.47;36.13;;;;;;;;;;4996526;28;20189;-78
2020/12/18 09:01:26;;;;;;;64.30;30.37;;;;;;;;;;4996554;28;20673;-78
2020/12/18 09:03:52;;;;;;;69.60;36.60;;;;;;;;;;4994937;28;20166;-78
2020/12/18 09:06:17;;;;;;;69.07;35.87;;;;;;;;;;4995430;28;20224;-78
2020/12/18 09:08:43;;;;;;;77.17;37.30;;;;;;;;;;4995721;28;20176;-78
2020/12/18 09:11:09;;;;;;;109.53;48.77;;;;;;;;;;4995428;28;20178;-78
2020/12/18 09:13:37;;;;;;;81.53;41.90;;;;;;;;;;4988592;28;20676;-78
2020/12/18 09:16:02;;;;;;;91.33;45.77;;;;;;;;;;4995451;28;20201;-78
2020/12/18 09:18:32;;;;;;;73.73;40.70;;;;;;;;;;4996166;28;20198;-78
2020/12/18 09:21:08;;;;;;;84.07;43.50;;;;;;;;;;4996150;28;20173;-78
2020/12/18 09:23:33;;;;;;;81.33;40.00;;;;;;;;;;4995840;28;20248;-78
2020/12/18 09:26:00;;;;;;;92.83;46.03;;;;;;;;;;4995550;28;20272;-78
2020/12/18 09:28:25;;;;;;;91.80;46.40;;;;;;;;;;4995460;28;20193;-78
2020/12/18 09:30:51;;;;;;;72.30;37.00;;;;;;;;;;4995090;28;20212;-79
2020/12/18 09:33:26;;;;;;;77.57;41.43;;;;;;;;;;5001140;28;20706;-78
2020/12/18 09:35:56;;;;;;;83.20;42.07;;;;;;;;;;4996441;28;20177;-78
2020/12/18 09:38:22;;;;;;;74.67;43.23;;;;;;;;;;4996032;28;20200;-78
2020/12/18 09:40:47;;;;;;;93.50;49.80;;;;;;;;;;4995678;28;20178;-78
2020/12/18 09:43:13;;;;;;;79.53;43.43;;;;;;;;;;4995992;28;20228;-78
2020/12/18 09:45:38;;;;;;;77.10;40.63;;;;;;;;;;4995674;28;20166;-78
2020/12/18 09:48:03;;;;;;;91.00;47.67;;;;;;;;;;4994012;28;20177;-78
2020/12/18 09:50:29;;;;;;;72.50;40.03;;;;;;;;;;4995540;28;20179;-78
2020/12/18 09:52:54;;;;;;;84.20;47.73;;;;;;;;;;4995728;28;20339;-78
2020/12/18 09:55:19;;;;;;;76.23;42.57;;;;;;;;;;4995159;28;20170;-78
2020/12/18 09:57:45;;;;;;;73.47;41.70;;;;;;;;;;4995501;28;20639;-78
2020/12/18 10:00:10;;;;;;;63.33;37.23;;;;;;;;;;4994760;28;20256;-79
2020/12/18 10:02:35;;;;;;;63.47;37.10;;;;;;;;;;4993519;28;20177;-79
2020/12/18 10:05:01;;;;;;;96.63;55.17;;;;;;;;;;4994393;28;20247;-80
2020/12/18 10:07:26;;;;;;;81.10;46.13;;;;;;;;;;4992245;28;20617;-79
2020/12/18 10:09:52;;;;;;;90.70;50.73;;;;;;;;;;4989832;28;20592;-78
2020/12/18 10:12:17;;;;;;;100.70;53.90;;;;;;;;;;4999244;28;20197;-78
2020/12/18 10:14:42;;;;;;;68.13;41.43;;;;;;;;;;4994557;28;20284;-79
2020/12/18 10:17:08;;;;;;;66.33;39.37;;;;;;;;;;4993671;28;20771;-79
2020/12/18 10:19:35;;;;;;;76.53;41.47;;;;;;;;;;4994456;28;20181;-78
2020/12/18 10:22:00;;;;;;;62.70;36.60;;;;;;;;;;4995524;28;20227;-78
2020/12/18 10:24:26;;;;;;;62.93;37.03;;;;;;;;;;4995199;28;20273;-78
2020/12/18 10:26:51;;;;;;;58.90;35.07;;;;;;;;;;4986188;28;20188;-79
2020/12/18 10:29:16;;;;;;;57.20;33.50;;;;;;;;;;4994388;28;20180;-78
2020/12/18 10:31:42;;;;;;;56.10;34.00;;;;;;;;;;4994698;28;20209;-78
2020/12/18 10:34:07;;;;;;;54.57;33.77;;;;;;;;;;4994194;28;20174;-79
2020/12/18 10:36:33;;;;;;;53.57;33.50;;;;;;;;;;4994660;28;20185;-78
2020/12/18 10:38:58;;;;;;;54.17;32.07;;;;;;;;;;4994312;28;20240;-78
2020/12/18 10:41:23;;;;;;;52.77;32.13;;;;;;;;;;4994355;28;20178;-79
2020/12/18 10:43:49;;;;;;;56.53;33.97;;;;;;;;;;4994313;28;20201;-78
2020/12/18 10:46:14;;;;;;;53.57;33.10;;;;;;;;;;4994234;28;20173;-78
2020/12/18 10:48:39;;;;;;;55.93;34.53;;;;;;;;;;4993621;28;20197;-78
2020/12/18 10:51:05;;;;;;;58.60;34.13;;;;;;;;;;4993985;28;20647;-78
2020/12/18 10:53:30;;;;;;;54.57;33.97;;;;;;;;;;4993971;28;20240;-78
2020/12/18 10:55:55;;;;;;;56.20;32.83;;;;;;;;;;4994993;28;20177;-78
2020/12/18 10:58:21;;;;;;;56.00;33.50;;;;;;;;;;4994314;28;20173;-78
2020/12/18 11:00:46;;;;;;;53.80;33.67;;;;;;;;;;4994131;28;20241;-78
2020/12/18 11:03:12;;;;;;;57.70;33.37;;;;;;;;;;4994674;28;20185;-79
2020/12/18 11:05:37;;;;;;;57.40;34.13;;;;;;;;;;4993480;28;20181;-79
2020/12/18 11:08:03;;;;;;;59.87;34.30;;;;;;;;;;5002317;28;20169;-79
2020/12/18 11:10:28;;;;;;;51.90;33.43;;;;;;;;;;5010525;28;20584;-81
2020/12/18 11:12:53;;;;;;;55.40;32.87;;;;;;;;;;4992827;28;20197;-79
2020/12/18 11:15:19;;;;;;;53.97;33.53;;;;;;;;;;4993630;28;20174;-79
2020/12/18 11:17:44;;;;;;;54.30;33.87;;;;;;;;;;4994600;28;20166;-78
2020/12/18 11:20:10;;;;;;;55.80;33.43;;;;;;;;;;4993843;28;20169;-78
2020/12/18 11:22:36;;;;;;;61.03;34.23;;;;;;;;;;4994268;28;20629;-78
2020/12/18 11:25:01;;;;;;;52.90;33.40;;;;;;;;;;4993987;28;20286;-78
2020/12/18 11:27:27;;;;;;;60.97;35.43;;;;;;;;;;4995432;28;20216;-78
2020/12/18 11:29:52;;;;;;;53.90;31.70;;;;;;;;;;4997894;28;20801;-78
2020/12/18 11:32:18;;;;;;;58.90;35.27;;;;;;;;;;4997987;28;20221;-78
2020/12/18 11:34:43;;;;;;;57.13;31.97;;;;;;;;;;4997956;28;20177;-78
2020/12/18 11:37:09;;;;;;;58.67;35.03;;;;;;;;;;4997257;28;20176;-79
2020/12/18 11:39:35;;;;;;;58.03;33.87;;;;;;;;;;4997311;28;20620;-78
2020/12/18 11:42:00;;;;;;;55.20;35.40;;;;;;;;;;4996664;28;20184;-79
2020/12/18 11:44:25;;;;;;;58.47;35.77;;;;;;;;;;4997038;28;20170;-79
2020/12/18 11:46:51;;;;;;;56.17;33.70;;;;;;;;;;5000686;28;20213;-81
2020/12/18 11:49:17;;;;;;;59.93;34.83;;;;;;;;;;4995688;28;20191;-80
2020/12/18 11:51:42;;;;;;;49.70;31.90;;;;;;;;;;4996050;28;20206;-79
2020/12/18 11:54:07;;;;;;;48.67;30.43;;;;;;;;;;4996580;28;20229;-79
2020/12/18 11:56:33;;;;;;;53.43;32.40;;;;;;;;;;4996392;28;20284;-78
2020/12/18 11:58:58;;;;;;;46.47;30.70;;;;;;;;;;4995182;28;20180;-79
2020/12/18 12:01:24;;;;;;;51.93;32.13;;;;;;;;;;4989206;28;20702;-79
2020/12/18 12:03:50;;;;;;;48.63;31.53;;;;;;;;;;4992536;28;20174;-78
2020/12/18 12:06:15;;;;;;;50.27;30.93;;;;;;;;;;4989528;28;20587;-79
2020/12/18 12:08:40;;;;;;;62.27;35.27;;;;;;;;;;4991365;28;20177;-79
2020/12/18 12:11:06;;;;;;;59.20;35.03;;;;;;;;;;4995594;28;20174;-79
2020/12/18 12:13:31;;;;;;;51.93;30.50;;;;;;;;;;4993767;28;20213;-79
2020/12/18 12:15:56;;;;;;;66.60;35.83;;;;;;;;;;4994945;28;20178;-79
2020/12/18 12:18:22;;;;;;;56.00;33.40;;;;;;;;;;4995135;28;20233;-80
2020/12/18 12:20:47;;;;;;;58.60;33.07;;;;;;;;;;4995016;28;20169;-79
2020/12/18 12:23:13;;;;;;;63.97;36.20;;;;;;;;;;4995094;28;20513;-80
2020/12/18 12:25:38;;;;;;;61.20;34.90;;;;;;;;;;4992923;28;20332;-79
2020/12/18 12:28:04;;;;;;;52.07;32.37;;;;;;;;;;4995035;28;20256;-79
2020/12/18 12:30:30;;;;;;;58.60;34.50;;;;;;;;;;4994843;28;20694;-79
2020/12/18 12:32:55;;;;;;;53.43;33.27;;;;;;;;;;4996955;28;20201;-78
2020/12/18 12:35:22;;;;;;;53.17;34.47;;;;;;;;;;4997254;28;20174;-78
2020/12/18 12:37:47;;;;;;;57.23;35.27;;;;;;;;;;4996651;28;20197;-78
2020/12/18 12:40:12;;;;;;;62.87;37.43;;;;;;;;;;4996531;28;20524;-78
2020/12/18 12:42:38;;;;;;;63.53;36.07;;;;;;;;;;4996031;28;20623;-78
2020/12/18 12:45:04;;;;;;;52.90;33.67;;;;;;;;;;4996559;28;20641;-78
2020/12/18 12:47:29;;;;;;;58.17;34.37;;;;;;;;;;4995617;28;20298;-78
2020/12/18 12:49:54;;;;;;;57.47;34.50;;;;;;;;;;4996724;28;20220;-78
2020/12/18 12:52:20;;;;;;;53.90;34.00;;;;;;;;;;4996741;28;20652;-78
2020/12/18 12:54:45;;;;;;;55.30;32.50;;;;;;;;;;4997080;28;20261;-78
2020/12/18 12:57:10;;;;;;;49.97;32.83;;;;;;;;;;4996229;28;20185;-78
2020/12/18 12:59:36;;;;;;;121.60;63.47;;;;;;;;;;4996545;28;20226;-78
2020/12/18 13:02:01;;;;;;;93.33;56.57;;;;;;;;;;4987332;28;20189;-78
2020/12/18 13:04:26;;;;;;;68.90;46.67;;;;;;;;;;4996882;28;20265;-78
2020/12/18 13:06:55;;;;;;;57.47;37.87;;;;;;;;;;4998872;28;20170;-79
2020/12/18 13:09:21;;;;;;;47.33;32.50;;;;;;;;;;4995843;28;20174;-78
2020/12/18 13:11:46;;;;;;;46.73;31.53;;;;;;;;;;4996242;28;20341;-78
2020/12/18 13:14:11;;;;;;;50.47;33.40;;;;;;;;;;4996039;28;20177;-78
2020/12/18 13:16:37;;;;;;;51.57;33.07;;;;;;;;;;4996251;28;20169;-80
2020/12/18 13:19:03;;;;;;;48.47;31.83;;;;;;;;;;4995819;28;20170;-78
2020/12/18 13:21:29;;;;;;;50.93;30.83;;;;;;;;;;4995795;28;20162;-79
2020/12/18 13:23:54;;;;;;;51.60;32.47;;;;;;;;;;4996039;28;20177;-78
2020/12/18 13:26:20;;;;;;;62.57;38.13;;;;;;;;;;4995094;28;20612;-78
2020/12/18 13:28:45;;;;;;;51.63;33.07;;;;;;;;;;4996002;28;20519;-78
2020/12/18 13:31:10;;;;;;;140.13;66.53;;;;;;;;;;4995661;28;20656;-78
2020/12/18 13:33:36;;;;;;;156.73;74.17;;;;;;;;;;4995343;28;20232;-78
2020/12/18 13:36:01;;;;;;;133.97;75.27;;;;;;;;;;4995706;28;20241;-78
2020/12/18 13:38:27;;;;;;;87.13;51.90;;;;;;;;;;4994835;28;20224;-78
2020/12/18 13:40:53;;;;;;;71.80;45.23;;;;;;;;;;4996311;28;20197;-78
2020/12/18 13:43:18;;;;;;;74.50;42.67;;;;;;;;;;4993001;28;20239;-78
2020/12/18 13:45:43;;;;;;;75.83;43.50;;;;;;;;;;4994447;28;20173;-78
2020/12/18 13:48:09;;;;;;;73.03;44.03;;;;;;;;;;4994886;28;20648;-78
2020/12/18 13:50:34;;;;;;;76.20;44.43;;;;;;;;;;5005882;28;20547;-78
2020/12/18 13:53:00;;;;;;;64.30;38.77;;;;;;;;;;5001243;28;20216;-78
2020/12/18 13:55:25;;;;;;;49.73;32.83;;;;;;;;;;5015624;28;20525;-78
2020/12/18 13:57:50;;;;;;;55.83;36.57;;;;;;;;;;5015061;28;20173;-78
2020/12/18 14:00:16;;;;;;;65.83;40.67;;;;;;;;;;5014955;28;20236;-78
2020/12/18 14:02:41;;;;;;;58.13;39.07;;;;;;;;;;5013138;28;20180;-79
2020/12/18 14:05:06;;;;;;;66.50;42.77;;;;;;;;;;4997980;28;20181;-78
2020/12/18 14:07:32;;;;;;;68.07;41.20;;;;;;;;;;4994505;28;20277;-78
2020/12/18 14:09:57;;;;;;;63.77;39.43;;;;;;;;;;4995417;28;20174;-78